Flight Track Log - Related Links

Times and Time Zones

All times are in EDT time to prevent confusion due to time zone crossing. See the EJA810 flight status page for this flight to view local times or setup timezone preferences in your user account.

Time Position Orientation Groundspeed Altitude Reporting Facility
EDT Latitude Longitude Course Direction KTS MPH feet Rate Location/Type
Wed 07:58:55 AM 43.6692 -70.4594 259° West 227 261 5,600  Level Boston Center
Wed 07:59:55 AM 43.6808 -70.5425 281° West 239 275 8,600 2,800 Climbing Boston Center
Wed 08:00:55 AM 43.6950 -70.6311 282° West 250 288 11,200 2,850 Climbing Boston Center
Wed 08:01:55 AM 43.7133 -70.7397 283° West 268 308 14,300 2,450 Climbing Boston Center
Wed 08:02:55 AM 43.7106 -70.8489 268° West 268 308 16,100 900 Climbing Boston Center
Wed 08:03:00 AM 43.6337 -71.0660 235° Southwest  Level FlightAware Approximate
Wed 08:03:55 AM 43.6828 -70.9500 249° West 292 336 16,100  Level Boston Center
Wed 08:04:00 AM 43.6169 -71.1987 259° West  Level FlightAware Approximate
Wed 08:04:55 AM 43.6508 -71.0714 250° West 327 376 16,000  Level Boston Center
Wed 08:05:55 AM 43.6253 -71.2067 255° West 333 383 16,100 50 Climbing Boston Center
Wed 08:06:55 AM 43.6017 -71.3333 256° West 339 390 16,100  Level Boston Center
Wed 08:07:55 AM 43.5778 -71.4600 255° West 339 390 16,100  Level Boston Center
Wed 08:08:55 AM 43.5558 -71.5864 257° West 339 390 16,100  Level Boston Center
Wed 08:09:55 AM 43.5339 -71.7128 257° West 339 390 16,100  Level Boston Center
Wed 08:10:55 AM 43.5075 -71.8389 254° West 339 390 16,100  Level Boston Center
Wed 08:11:55 AM 43.4517 -71.9197 226° Southwest 333 383 16,100  Level Boston Center
Wed 08:12:55 AM 43.3750 -72.0117 221° Southwest 333 383 16,100  Level Boston Center
Wed 08:13:55 AM 43.3064 -72.1006 223° Southwest 338 389 16,100  Level Boston Center
Wed 08:14:55 AM 43.2378 -72.1836 221° Southwest 338 389 16,100  Level Boston Center
Wed 08:15:55 AM 43.1692 -72.2692 222° Southwest 343 395 16,100  Level Boston Center
Wed 08:16:55 AM 43.1069 -72.3461 222° Southwest 343 395 16,100  Level Boston Center
Wed 08:17:55 AM 43.0381 -72.4317 222° Southwest 343 395 16,100  Level Boston Center
Wed 08:18:55 AM 42.9694 -72.5167 222° Southwest 343 395 16,100  Level Boston Center
Wed 08:19:55 AM 42.8983 -72.6044 222° Southwest 343 395 16,100  Level Boston Center
Wed 08:20:55 AM 42.8275 -72.6892 221° Southwest 343 395 16,100  Level Boston Center
Wed 08:21:55 AM 42.7583 -72.7739 222° Southwest 343 395 16,100  Level Boston Center
Wed 08:22:55 AM 42.6914 -72.8581 223° Southwest 343 395 16,100 -400 Level Boston Center
Wed 08:23:55 AM 42.6222 -72.9422 222° Southwest 343 395 15,300 -950 Descending Boston Center
Wed 08:24:55 AM 42.5531 -73.0206 220° Southwest 330 380 14,200 -1,350 Descending Boston Center
Wed 08:25:55 AM 42.4797 -73.1044 220° Southwest 330 380 12,600 -1,450 Descending Boston Center
Wed 08:26:55 AM 42.4231 -73.1769 223° Southwest 324 373 11,300 -800 Descending Boston Center
Wed 08:27:55 AM 42.3558 -73.2547 221° Southwest 304 350 11,000 -150 Descending Boston Center
Wed 08:28:55 AM 42.3011 -73.3244 223° Southwest 299 344 11,000  Level Boston Center
Wed 08:29:55 AM 42.2275 -73.4131 222° Southwest 309 356 11,000  Level Boston Center
Wed 08:30:55 AM 42.1642 -73.4847 220° Southwest 314 361 11,000 -1,314 Level Boston Center
Wed 08:33:25 AM 42.0333 -73.6500 223° Southwest 242 278 6,400 -1,971 Descending New York TRACON
Wed 08:34:25 AM 41.9667 -73.7167 217° Southwest 252 290 4,100 -1,200 Descending New York TRACON
Wed 08:35:25 AM 41.9167 -73.7667 217° Southwest 267 307 4,000 -50 Descending New York TRACON
Wed 08:36:25 AM 41.8500 -73.8167 209° Southwest 266 306 4,000  Level New York TRACON
Wed 08:37:31 AM 41.7833 -73.8833 217° Southwest 254 292 4,000  Level New York TRACON
Wed 08:38:31 AM 41.7167 -73.9333 209° Southwest 250 288 4,000  Level New York TRACON
Wed 08:39:31 AM 41.6667 -73.9667 206° Southwest 258 297 4,000 -400 Level New York TRACON
Wed 08:40:31 AM 41.6000 -73.9833 191° South 227 261 3,200 -750 Descending New York TRACON
Wed 08:41:31 AM 41.5500 -74.0000 194° South 207 238 2,500 -950 Descending New York TRACON
Wed 08:42:31 AM 41.5167 -74.0500 228° Southwest 156 180 1,300 -1,200 Descending New York TRACON
Wed 08:44:00 AM 41.5000 -74.1000 217° Southwest  Level FlightAware Approximate
Wed 08:51:00 AM 41.5041 -74.1048 217° Southwest  Level Estimated
Wed 08:52:00 AM 41.5000 -74.1000 217° Southwest  Level FlightAware Approximate

Login

Don't have an account? Register now (free) for customized features, flight alerts, and more!